sensor_id;sensor_type;location;lat;lon;timestamp;temperature;humidity
8896;DHT22;4484;48.928;10.066;2023-07-30T00:00:34;16.80;99.90
8896;DHT22;4484;48.928;10.066;2023-07-30T00:03:01;16.90;99.90
8896;DHT22;4484;48.928;10.066;2023-07-30T00:05:28;16.80;99.90
8896;DHT22;4484;48.928;10.066;2023-07-30T00:07:55;16.80;99.90
8896;DHT22;4484;48.928;10.066;2023-07-30T00:10:22;16.80;99.90
8896;DHT22;4484;48.928;10.066;2023-07-30T00:12:49;16.70;99.90
8896;DHT22;4484;48.928;10.066;2023-07-30T00:15:16;16.70;99.90
8896;DHT22;4484;48.928;10.066;2023-07-30T00:17:43;16.60;99.90
8896;DHT22;4484;48.928;10.066;2023-07-30T00:20:10;16.50;99.90
8896;DHT22;4484;48.928;10.066;2023-07-30T00:22:37;16.50;99.90
8896;DHT22;4484;48.928;10.066;2023-07-30T00:25:04;16.40;99.90
8896;DHT22;4484;48.928;10.066;2023-07-30T00:27:31;16.40;99.90
8896;DHT22;4484;48.928;10.066;2023-07-30T00:29:58;16.30;99.90
8896;DHT22;4484;48.928;10.066;2023-07-30T00:32:24;16.30;99.90
8896;DHT22;4484;48.928;10.066;2023-07-30T00:34:51;16.30;99.90
8896;DHT22;4484;48.928;10.066;2023-07-30T00:37:18;16.30;99.90
8896;DHT22;4484;48.928;10.066;2023-07-30T00:39:46;16.30;99.90
8896;DHT22;4484;48.928;10.066;2023-07-30T00:42:13;16.30;99.90
8896;DHT22;4484;48.928;10.066;2023-07-30T00:44:41;16.20;99.90
8896;DHT22;4484;48.928;10.066;2023-07-30T00:47:08;16.10;99.90
8896;DHT22;4484;48.928;10.066;2023-07-30T00:49:35;16.10;99.90
8896;DHT22;4484;48.928;10.066;2023-07-30T00:52:03;16.00;99.90
8896;DHT22;4484;48.928;10.066;2023-07-30T00:54:30;16.00;99.90
8896;DHT22;4484;48.928;10.066;2023-07-30T00:56:57;15.90;99.90
8896;DHT22;4484;48.928;10.066;2023-07-30T00:59:25;15.80;99.90
8896;DHT22;4484;48.928;10.066;2023-07-30T01:01:52;15.70;99.90
8896;DHT22;4484;48.928;10.066;2023-07-30T01:04:19;15.70;99.90
8896;DHT22;4484;48.928;10.066;2023-07-30T01:06:46;15.60;99.90
8896;DHT22;4484;48.928;10.066;2023-07-30T01:09:13;15.60;99.90
8896;DHT22;4484;48.928;10.066;2023-07-30T01:11:41;15.50;99.90
8896;DHT22;4484;48.928;10.066;2023-07-30T01:14:09;15.50;99.90
8896;DHT22;4484;48.928;10.066;2023-07-30T01:16:36;15.50;99.90
8896;DHT22;4484;48.928;10.066;2023-07-30T01:19:05;15.50;99.90
8896;DHT22;4484;48.928;10.066;2023-07-30T01:21:36;15.50;99.90
8896;DHT22;4484;48.928;10.066;2023-07-30T01:24:04;15.50;99.90
8896;DHT22;4484;48.928;10.066;2023-07-30T01:26:44;15.40;99.90
8896;DHT22;4484;48.928;10.066;2023-07-30T01:29:24;15.40;99.90
8896;DHT22;4484;48.928;10.066;2023-07-30T01:31:59;15.40;99.90
8896;DHT22;4484;48.928;10.066;2023-07-30T01:34:28;15.40;99.90
8896;DHT22;4484;48.928;10.066;2023-07-30T01:36:57;15.30;99.90
8896;DHT22;4484;48.928;10.066;2023-07-30T01:39:25;15.30;99.90
8896;DHT22;4484;48.928;10.066;2023-07-30T01:41:54;15.30;99.90
8896;DHT22;4484;48.928;10.066;2023-07-30T01:44:21;15.30;99.90
8896;DHT22;4484;48.928;10.066;2023-07-30T01:46:48;15.30;99.90
8896;DHT22;4484;48.928;10.066;2023-07-30T01:49:14;15.30;99.90
8896;DHT22;4484;48.928;10.066;2023-07-30T01:51:41;15.30;99.90
8896;DHT22;4484;48.928;10.066;2023-07-30T01:54:08;15.30;99.90
8896;DHT22;4484;48.928;10.066;2023-07-30T01:56:35;15.30;99.90
8896;DHT22;4484;48.928;10.066;2023-07-30T01:59:02;15.30;99.90
8896;DHT22;4484;48.928;10.066;2023-07-30T02:01:29;15.30;99.90
8896;DHT22;4484;48.928;10.066;2023-07-30T02:03:56;15.30;99.90
8896;DHT22;4484;48.928;10.066;2023-07-30T02:06:23;15.30;99.90
8896;DHT22;4484;48.928;10.066;2023-07-30T02:08:49;15.30;99.90
8896;DHT22;4484;48.928;10.066;2023-07-30T02:11:16;15.30;99.90
8896;DHT22;4484;48.928;10.066;2023-07-30T02:13:43;15.20;99.90
8896;DHT22;4484;48.928;10.066;2023-07-30T02:16:10;15.20;99.90
8896;DHT22;4484;48.928;10.066;2023-07-30T02:18:37;15.20;99.90
8896;DHT22;4484;48.928;10.066;2023-07-30T02:21:04;15.20;99.90
8896;DHT22;4484;48.928;10.066;2023-07-30T02:23:30;15.20;99.90
8896;DHT22;4484;48.928;10.066;2023-07-30T02:25:57;15.20;99.90
8896;DHT22;4484;48.928;10.066;2023-07-30T02:28:24;15.20;99.90
8896;DHT22;4484;48.928;10.066;2023-07-30T02:30:51;15.20;99.90
8896;DHT22;4484;48.928;10.066;2023-07-30T02:33:18;15.20;99.90
8896;DHT22;4484;48.928;10.066;2023-07-30T02:35:45;15.10;99.90
8896;DHT22;4484;48.928;10.066;2023-07-30T02:38:11;15.10;99.90
8896;DHT22;4484;48.928;10.066;2023-07-30T02:40:38;15.10;99.90
8896;DHT22;4484;48.928;10.066;2023-07-30T02:43:05;15.10;99.90
8896;DHT22;4484;48.928;10.066;2023-07-30T02:45:32;15.10;99.90
8896;DHT22;4484;48.928;10.066;2023-07-30T02:47:59;15.10;99.90
8896;DHT22;4484;48.928;10.066;2023-07-30T02:50:26;15.10;99.90
8896;DHT22;4484;48.928;10.066;2023-07-30T02:52:53;15.00;99.90
8896;DHT22;4484;48.928;10.066;2023-07-30T02:55:19;15.00;99.90
8896;DHT22;4484;48.928;10.066;2023-07-30T02:57:46;15.10;99.90
8896;DHT22;4484;48.928;10.066;2023-07-30T03:00:13;15.00;99.90
8896;DHT22;4484;48.928;10.066;2023-07-30T03:02:40;15.00;99.90
8896;DHT22;4484;48.928;10.066;2023-07-30T03:05:08;15.00;99.90
8896;DHT22;4484;48.928;10.066;2023-07-30T03:07:35;15.00;99.90
8896;DHT22;4484;48.928;10.066;2023-07-30T03:10:02;15.00;99.90
8896;DHT22;4484;48.928;10.066;2023-07-30T03:12:29;14.90;99.90
8896;DHT22;4484;48.928;10.066;2023-07-30T03:14:56;14.90;99.90
8896;DHT22;4484;48.928;10.066;2023-07-30T03:17:23;14.90;99.90
8896;DHT22;4484;48.928;10.066;2023-07-30T03:19:50;14.90;99.90
8896;DHT22;4484;48.928;10.066;2023-07-30T03:22:16;14.90;99.90
8896;DHT22;4484;48.928;10.066;2023-07-30T03:24:46;14.90;99.90
8896;DHT22;4484;48.928;10.066;2023-07-30T03:27:14;15.00;99.90
8896;DHT22;4484;48.928;10.066;2023-07-30T03:29:40;15.00;99.90
8896;DHT22;4484;48.928;10.066;2023-07-30T03:32:07;15.00;99.90
8896;DHT22;4484;48.928;10.066;2023-07-30T03:34:34;15.00;99.90
8896;DHT22;4484;48.928;10.066;2023-07-30T03:37:01;15.00;99.90
8896;DHT22;4484;48.928;10.066;2023-07-30T03:39:28;15.10;99.90
8896;DHT22;4484;48.928;10.066;2023-07-30T03:41:55;15.10;99.90
8896;DHT22;4484;48.928;10.066;2023-07-30T03:44:21;15.20;99.90
8896;DHT22;4484;48.928;10.066;2023-07-30T03:46:48;15.20;99.90
8896;DHT22;4484;48.928;10.066;2023-07-30T03:49:15;15.20;99.90
8896;DHT22;4484;48.928;10.066;2023-07-30T03:51:42;15.20;99.90
8896;DHT22;4484;48.928;10.066;2023-07-30T03:54:09;15.20;99.90
8896;DHT22;4484;48.928;10.066;2023-07-30T03:56:36;15.20;99.90
8896;DHT22;4484;48.928;10.066;2023-07-30T03:59:02;15.30;99.90
8896;DHT22;4484;48.928;10.066;2023-07-30T04:01:29;15.30;99.90
8896;DHT22;4484;48.928;10.066;2023-07-30T04:03:57;15.30;99.90
8896;DHT22;4484;48.928;10.066;2023-07-30T04:06:24;15.40;99.90
8896;DHT22;4484;48.928;10.066;2023-07-30T04:08:51;15.40;99.90
8896;DHT22;4484;48.928;10.066;2023-07-30T04:11:17;15.40;99.90
8896;DHT22;4484;48.928;10.066;2023-07-30T04:13:44;15.40;99.90
8896;DHT22;4484;48.928;10.066;2023-07-30T04:16:11;15.50;99.90
8896;DHT22;4484;48.928;10.066;2023-07-30T04:18:38;15.50;99.90
8896;DHT22;4484;48.928;10.066;2023-07-30T04:21:05;15.60;99.90
8896;DHT22;4484;48.928;10.066;2023-07-30T04:23:32;15.60;99.90
8896;DHT22;4484;48.928;10.066;2023-07-30T04:25:59;15.70;99.90
8896;DHT22;4484;48.928;10.066;2023-07-30T04:28:26;15.70;99.90
8896;DHT22;4484;48.928;10.066;2023-07-30T04:30:53;15.80;99.90
8896;DHT22;4484;48.928;10.066;2023-07-30T04:33:20;15.90;99.90
8896;DHT22;4484;48.928;10.066;2023-07-30T04:35:48;16.00;99.90
8896;DHT22;4484;48.928;10.066;2023-07-30T04:38:14;16.00;99.90
8896;DHT22;4484;48.928;10.066;2023-07-30T04:40:42;16.00;99.90
8896;DHT22;4484;48.928;10.066;2023-07-30T04:43:08;16.00;99.90
8896;DHT22;4484;48.928;10.066;2023-07-30T04:45:36;16.10;99.90
8896;DHT22;4484;48.928;10.066;2023-07-30T04:48:03;16.10;99.90
8896;DHT22;4484;48.928;10.066;2023-07-30T04:50:30;16.10;99.90
8896;DHT22;4484;48.928;10.066;2023-07-30T04:52:58;16.10;99.90
8896;DHT22;4484;48.928;10.066;2023-07-30T04:55:25;16.20;99.90
8896;DHT22;4484;48.928;10.066;2023-07-30T04:57:52;16.20;99.90
8896;DHT22;4484;48.928;10.066;2023-07-30T05:00:19;16.30;99.90
8896;DHT22;4484;48.928;10.066;2023-07-30T05:02:46;16.30;99.90
8896;DHT22;4484;48.928;10.066;2023-07-30T05:05:13;16.30;99.90
8896;DHT22;4484;48.928;10.066;2023-07-30T05:07:40;16.40;99.90
8896;DHT22;4484;48.928;10.066;2023-07-30T05:10:07;16.40;99.90
8896;DHT22;4484;48.928;10.066;2023-07-30T05:12:37;16.50;99.90
8896;DHT22;4484;48.928;10.066;2023-07-30T05:15:04;16.60;99.90
8896;DHT22;4484;48.928;10.066;2023-07-30T05:17:31;16.60;99.90
8896;DHT22;4484;48.928;10.066;2023-07-30T05:19:58;16.70;99.90
8896;DHT22;4484;48.928;10.066;2023-07-30T05:22:25;16.70;99.90
8896;DHT22;4484;48.928;10.066;2023-07-30T05:24:52;16.80;99.90
8896;DHT22;4484;48.928;10.066;2023-07-30T05:27:18;16.80;99.90
8896;DHT22;4484;48.928;10.066;2023-07-30T05:29:45;16.90;99.90
8896;DHT22;4484;48.928;10.066;2023-07-30T05:32:15;17.00;99.90
8896;DHT22;4484;48.928;10.066;2023-07-30T05:34:41;17.00;99.90
8896;DHT22;4484;48.928;10.066;2023-07-30T05:37:08;17.20;99.90
8896;DHT22;4484;48.928;10.066;2023-07-30T05:39:35;17.20;99.90
8896;DHT22;4484;48.928;10.066;2023-07-30T05:42:02;17.20;99.90
8896;DHT22;4484;48.928;10.066;2023-07-30T05:44:29;17.30;99.90
8896;DHT22;4484;48.928;10.066;2023-07-30T05:46:56;17.40;99.90
8896;DHT22;4484;48.928;10.066;2023-07-30T05:49:24;17.40;99.90
8896;DHT22;4484;48.928;10.066;2023-07-30T05:51:51;17.40;99.90
8896;DHT22;4484;48.928;10.066;2023-07-30T05:54:18;17.40;99.90
8896;DHT22;4484;48.928;10.066;2023-07-30T05:56:45;17.40;99.90
8896;DHT22;4484;48.928;10.066;2023-07-30T05:59:11;17.40;99.90
8896;DHT22;4484;48.928;10.066;2023-07-30T06:01:39;17.40;99.90
8896;DHT22;4484;48.928;10.066;2023-07-30T06:04:06;17.40;99.90
8896;DHT22;4484;48.928;10.066;2023-07-30T06:06:33;17.30;99.90
8896;DHT22;4484;48.928;10.066;2023-07-30T06:09:00;17.30;99.90
8896;DHT22;4484;48.928;10.066;2023-07-30T06:11:27;17.30;99.90
8896;DHT22;4484;48.928;10.066;2023-07-30T06:13:54;17.30;99.90
8896;DHT22;4484;48.928;10.066;2023-07-30T06:16:21;17.30;99.90
8896;DHT22;4484;48.928;10.066;2023-07-30T06:18:48;17.30;99.90
8896;DHT22;4484;48.928;10.066;2023-07-30T06:21:15;17.30;99.90
8896;DHT22;4484;48.928;10.066;2023-07-30T06:23:41;17.30;99.90
8896;DHT22;4484;48.928;10.066;2023-07-30T06:26:08;17.30;99.90
8896;DHT22;4484;48.928;10.066;2023-07-30T06:28:35;17.40;99.90
8896;DHT22;4484;48.928;10.066;2023-07-30T06:31:02;17.40;99.90
8896;DHT22;4484;48.928;10.066;2023-07-30T06:33:29;17.40;99.90
8896;DHT22;4484;48.928;10.066;2023-07-30T06:35:59;17.50;99.90
8896;DHT22;4484;48.928;10.066;2023-07-30T06:38:25;17.50;99.90
8896;DHT22;4484;48.928;10.066;2023-07-30T06:40:53;17.40;99.90
8896;DHT22;4484;48.928;10.066;2023-07-30T06:43:20;17.40;99.90
8896;DHT22;4484;48.928;10.066;2023-07-30T06:45:46;17.50;99.90
8896;DHT22;4484;48.928;10.066;2023-07-30T06:48:13;17.50;99.90
8896;DHT22;4484;48.928;10.066;2023-07-30T06:50:42;17.50;99.90
8896;DHT22;4484;48.928;10.066;2023-07-30T06:53:09;17.50;99.90
8896;DHT22;4484;48.928;10.066;2023-07-30T06:55:35;17.50;99.90
8896;DHT22;4484;48.928;10.066;2023-07-30T06:58:02;17.50;99.90
8896;DHT22;4484;48.928;10.066;2023-07-30T07:00:29;17.50;99.90
8896;DHT22;4484;48.928;10.066;2023-07-30T07:02:56;17.50;99.90
8896;DHT22;4484;48.928;10.066;2023-07-30T07:05:23;17.40;99.90
8896;DHT22;4484;48.928;10.066;2023-07-30T07:07:50;17.50;99.90
8896;DHT22;4484;48.928;10.066;2023-07-30T07:10:16;17.60;99.90
8896;DHT22;4484;48.928;10.066;2023-07-30T07:12:43;17.80;99.90
8896;DHT22;4484;48.928;10.066;2023-07-30T07:15:10;18.10;99.90
8896;DHT22;4484;48.928;10.066;2023-07-30T07:17:37;18.40;99.90
8896;DHT22;4484;48.928;10.066;2023-07-30T07:20:04;18.70;99.90
8896;DHT22;4484;48.928;10.066;2023-07-30T07:22:33;18.90;99.90
8896;DHT22;4484;48.928;10.066;2023-07-30T07:25:00;19.00;99.90
8896;DHT22;4484;48.928;10.066;2023-07-30T07:27:27;19.10;99.90
8896;DHT22;4484;48.928;10.066;2023-07-30T07:29:54;19.10;99.90
8896;DHT22;4484;48.928;10.066;2023-07-30T07:32:21;19.10;99.90
8896;DHT22;4484;48.928;10.066;2023-07-30T07:34:49;19.10;99.90
8896;DHT22;4484;48.928;10.066;2023-07-30T07:37:16;19.10;99.90
8896;DHT22;4484;48.928;10.066;2023-07-30T07:39:45;19.30;99.90
8896;DHT22;4484;48.928;10.066;2023-07-30T07:42:12;19.30;99.90
8896;DHT22;4484;48.928;10.066;2023-07-30T07:44:39;19.30;99.90
8896;DHT22;4484;48.928;10.066;2023-07-30T07:47:06;19.40;99.90
8896;DHT22;4484;48.928;10.066;2023-07-30T07:49:33;19.70;99.90
8896;DHT22;4484;48.928;10.066;2023-07-30T07:52:00;20.00;99.90
8896;DHT22;4484;48.928;10.066;2023-07-30T07:54:26;20.20;99.90
8896;DHT22;4484;48.928;10.066;2023-07-30T07:56:53;20.60;99.90
8896;DHT22;4484;48.928;10.066;2023-07-30T07:59:20;20.90;99.90
8896;DHT22;4484;48.928;10.066;2023-07-30T08:01:47;21.20;99.90
8896;DHT22;4484;48.928;10.066;2023-07-30T08:04:13;21.30;99.90
8896;DHT22;4484;48.928;10.066;2023-07-30T08:06:40;21.20;99.90
8896;DHT22;4484;48.928;10.066;2023-07-30T08:09:07;21.20;99.90
8896;DHT22;4484;48.928;10.066;2023-07-30T08:11:35;21.20;99.90
8896;DHT22;4484;48.928;10.066;2023-07-30T08:14:03;21.10;99.90
8896;DHT22;4484;48.928;10.066;2023-07-30T08:16:30;21.30;99.90
8896;DHT22;4484;48.928;10.066;2023-07-30T08:18:56;21.50;99.90
8896;DHT22;4484;48.928;10.066;2023-07-30T08:21:23;21.60;99.90
8896;DHT22;4484;48.928;10.066;2023-07-30T08:23:50;21.60;99.90
8896;DHT22;4484;48.928;10.066;2023-07-30T08:26:17;21.50;99.90
8896;DHT22;4484;48.928;10.066;2023-07-30T08:28:44;21.40;99.90
8896;DHT22;4484;48.928;10.066;2023-07-30T08:31:10;21.10;99.90
8896;DHT22;4484;48.928;10.066;2023-07-30T08:33:37;20.80;99.90
8896;DHT22;4484;48.928;10.066;2023-07-30T08:36:04;20.60;99.90
8896;DHT22;4484;48.928;10.066;2023-07-30T08:38:31;20.50;99.90
8896;DHT22;4484;48.928;10.066;2023-07-30T08:40:58;20.50;99.90
8896;DHT22;4484;48.928;10.066;2023-07-30T08:43:25;20.50;99.90
8896;DHT22;4484;48.928;10.066;2023-07-30T08:45:52;20.40;99.90
8896;DHT22;4484;48.928;10.066;2023-07-30T08:48:18;20.20;99.90
8896;DHT22;4484;48.928;10.066;2023-07-30T08:50:46;19.90;99.90
8896;DHT22;4484;48.928;10.066;2023-07-30T08:53:14;19.70;99.90
8896;DHT22;4484;48.928;10.066;2023-07-30T08:55:41;19.50;99.90
8896;DHT22;4484;48.928;10.066;2023-07-30T08:58:09;19.40;99.90
8896;DHT22;4484;48.928;10.066;2023-07-30T09:00:38;19.20;99.90
8896;DHT22;4484;48.928;10.066;2023-07-30T09:03:08;19.10;99.90
8896;DHT22;4484;48.928;10.066;2023-07-30T09:05:35;18.90;99.90
8896;DHT22;4484;48.928;10.066;2023-07-30T09:08:03;18.70;99.90
8896;DHT22;4484;48.928;10.066;2023-07-30T09:10:30;18.60;99.90
8896;DHT22;4484;48.928;10.066;2023-07-30T09:12:57;18.60;99.90
8896;DHT22;4484;48.928;10.066;2023-07-30T09:15:34;18.40;99.90
8896;DHT22;4484;48.928;10.066;2023-07-30T09:18:01;18.40;99.90
8896;DHT22;4484;48.928;10.066;2023-07-30T09:20:37;18.20;99.90
8896;DHT22;4484;48.928;10.066;2023-07-30T09:23:05;18.20;99.90
8896;DHT22;4484;48.928;10.066;2023-07-30T09:25:34;18.30;99.90
8896;DHT22;4484;48.928;10.066;2023-07-30T09:28:01;18.40;99.90
8896;DHT22;4484;48.928;10.066;2023-07-30T09:30:28;18.60;99.90
8896;DHT22;4484;48.928;10.066;2023-07-30T09:32:57;18.90;99.90
8896;DHT22;4484;48.928;10.066;2023-07-30T09:35:25;19.10;99.90
8896;DHT22;4484;48.928;10.066;2023-07-30T09:38:03;19.40;99.90
8896;DHT22;4484;48.928;10.066;2023-07-30T09:40:35;19.60;99.90
8896;DHT22;4484;48.928;10.066;2023-07-30T09:43:03;19.70;99.90
8896;DHT22;4484;48.928;10.066;2023-07-30T09:45:34;19.70;99.90
8896;DHT22;4484;48.928;10.066;2023-07-30T09:48:05;19.70;99.90
8896;DHT22;4484;48.928;10.066;2023-07-30T09:50:37;19.70;99.90
8896;DHT22;4484;48.928;10.066;2023-07-30T09:53:04;19.80;99.90
8896;DHT22;4484;48.928;10.066;2023-07-30T09:55:31;19.80;99.90
8896;DHT22;4484;48.928;10.066;2023-07-30T09:57:58;20.10;99.90
8896;DHT22;4484;48.928;10.066;2023-07-30T10:00:27;20.50;99.90
8896;DHT22;4484;48.928;10.066;2023-07-30T10:02:55;21.00;99.90
8896;DHT22;4484;48.928;10.066;2023-07-30T10:05:29;21.40;99.90
8896;DHT22;4484;48.928;10.066;2023-07-30T10:08:12;21.70;99.90
8896;DHT22;4484;48.928;10.066;2023-07-30T10:10:41;21.60;99.90
8896;DHT22;4484;48.928;10.066;2023-07-30T10:13:10;21.80;99.90
8896;DHT22;4484;48.928;10.066;2023-07-30T10:15:39;21.70;99.90
8896;DHT22;4484;48.928;10.066;2023-07-30T10:18:06;21.60;99.90
8896;DHT22;4484;48.928;10.066;2023-07-30T10:20:33;21.50;99.90
8896;DHT22;4484;48.928;10.066;2023-07-30T10:23:01;21.40;99.90
8896;DHT22;4484;48.928;10.066;2023-07-30T10:25:42;21.60;99.90
8896;DHT22;4484;48.928;10.066;2023-07-30T10:28:27;21.70;99.90
8896;DHT22;4484;48.928;10.066;2023-07-30T10:31:04;21.70;99.90
8896;DHT22;4484;48.928;10.066;2023-07-30T10:33:53;21.70;99.90
8896;DHT22;4484;48.928;10.066;2023-07-30T10:36:44;21.60;99.90
8896;DHT22;4484;48.928;10.066;2023-07-30T10:39:47;21.50;99.90
8896;DHT22;4484;48.928;10.066;2023-07-30T10:42:06;21.40;99.90
8896;DHT22;4484;48.928;10.066;2023-07-30T10:44:34;21.80;99.90
8896;DHT22;4484;48.928;10.066;2023-07-30T10:47:02;22.00;99.90
8896;DHT22;4484;48.928;10.066;2023-07-30T10:49:36;22.20;99.90
8896;DHT22;4484;48.928;10.066;2023-07-30T10:52:04;22.30;99.90
8896;DHT22;4484;48.928;10.066;2023-07-30T10:54:34;22.50;99.90
8896;DHT22;4484;48.928;10.066;2023-07-30T10:57:02;22.50;99.90
8896;DHT22;4484;48.928;10.066;2023-07-30T10:59:36;22.50;99.90
8896;DHT22;4484;48.928;10.066;2023-07-30T11:02:03;22.40;99.90
8896;DHT22;4484;48.928;10.066;2023-07-30T11:04:34;22.10;99.90
8896;DHT22;4484;48.928;10.066;2023-07-30T11:07:02;21.90;99.90
8896;DHT22;4484;48.928;10.066;2023-07-30T11:09:30;21.50;99.90
8896;DHT22;4484;48.928;10.066;2023-07-30T11:11:57;21.30;99.90
8896;DHT22;4484;48.928;10.066;2023-07-30T11:14:25;21.00;99.90
8896;DHT22;4484;48.928;10.066;2023-07-30T11:16:58;20.70;99.90
8896;DHT22;4484;48.928;10.066;2023-07-30T11:19:28;20.50;99.90
8896;DHT22;4484;48.928;10.066;2023-07-30T11:21:57;20.40;99.90
8896;DHT22;4484;48.928;10.066;2023-07-30T11:24:34;20.50;99.90
8896;DHT22;4484;48.928;10.066;2023-07-30T11:27:01;20.60;99.90
8896;DHT22;4484;48.928;10.066;2023-07-30T11:29:28;20.60;99.90
8896;DHT22;4484;48.928;10.066;2023-07-30T11:31:57;20.90;99.90
8896;DHT22;4484;48.928;10.066;2023-07-30T11:34:26;21.40;99.90
8896;DHT22;4484;48.928;10.066;2023-07-30T11:36:54;22.10;99.90
8896;DHT22;4484;48.928;10.066;2023-07-30T11:39:23;22.60;99.90
8896;DHT22;4484;48.928;10.066;2023-07-30T11:41:51;22.60;99.90
8896;DHT22;4484;48.928;10.066;2023-07-30T11:44:37;22.70;99.90
8896;DHT22;4484;48.928;10.066;2023-07-30T11:47:06;22.80;99.90
8896;DHT22;4484;48.928;10.066;2023-07-30T11:49:33;22.90;99.90
8896;DHT22;4484;48.928;10.066;2023-07-30T11:52:07;22.90;99.90
8896;DHT22;4484;48.928;10.066;2023-07-30T11:54:35;23.30;99.90
8896;DHT22;4484;48.928;10.066;2023-07-30T11:57:03;23.50;99.90
8896;DHT22;4484;48.928;10.066;2023-07-30T11:59:31;23.50;99.90
8896;DHT22;4484;48.928;10.066;2023-07-30T12:01:58;23.90;99.90
8896;DHT22;4484;48.928;10.066;2023-07-30T12:04:25;24.00;99.90
8896;DHT22;4484;48.928;10.066;2023-07-30T12:06:56;23.60;99.90
8896;DHT22;4484;48.928;10.066;2023-07-30T12:09:24;23.40;99.90
8896;DHT22;4484;48.928;10.066;2023-07-30T12:11:59;23.40;99.90
8896;DHT22;4484;48.928;10.066;2023-07-30T12:14:43;23.60;99.90
8896;DHT22;4484;48.928;10.066;2023-07-30T12:17:10;23.40;99.90
8896;DHT22;4484;48.928;10.066;2023-07-30T12:19:37;23.10;99.90
8896;DHT22;4484;48.928;10.066;2023-07-30T12:22:04;23.10;99.90
8896;DHT22;4484;48.928;10.066;2023-07-30T12:24:30;23.30;99.90
8896;DHT22;4484;48.928;10.066;2023-07-30T12:26:57;23.20;99.90
8896;DHT22;4484;48.928;10.066;2023-07-30T12:29:25;23.20;99.90
8896;DHT22;4484;48.928;10.066;2023-07-30T12:31:52;23.50;99.90
8896;DHT22;4484;48.928;10.066;2023-07-30T12:34:20;23.90;99.90
8896;DHT22;4484;48.928;10.066;2023-07-30T12:36:47;24.30;99.90
8896;DHT22;4484;48.928;10.066;2023-07-30T12:39:14;24.30;99.90
8896;DHT22;4484;48.928;10.066;2023-07-30T12:41:40;24.10;99.90
8896;DHT22;4484;48.928;10.066;2023-07-30T12:44:07;23.90;99.90
8896;DHT22;4484;48.928;10.066;2023-07-30T12:46:36;23.80;99.90
8896;DHT22;4484;48.928;10.066;2023-07-30T12:49:03;23.40;99.90
8896;DHT22;4484;48.928;10.066;2023-07-30T12:51:32;23.10;99.90
8896;DHT22;4484;48.928;10.066;2023-07-30T12:54:00;23.20;99.90
8896;DHT22;4484;48.928;10.066;2023-07-30T12:56:26;23.40;99.90
8896;DHT22;4484;48.928;10.066;2023-07-30T12:58:53;23.60;99.90
8896;DHT22;4484;48.928;10.066;2023-07-30T13:01:20;23.90;99.90
8896;DHT22;4484;48.928;10.066;2023-07-30T13:03:48;24.10;99.90
8896;DHT22;4484;48.928;10.066;2023-07-30T13:06:17;24.20;99.90
8896;DHT22;4484;48.928;10.066;2023-07-30T13:08:43;24.50;99.90
8896;DHT22;4484;48.928;10.066;2023-07-30T13:11:10;24.90;99.90
8896;DHT22;4484;48.928;10.066;2023-07-30T13:13:37;24.90;99.90
8896;DHT22;4484;48.928;10.066;2023-07-30T13:16:04;24.70;99.90
8896;DHT22;4484;48.928;10.066;2023-07-30T13:18:31;24.60;99.90
8896;DHT22;4484;48.928;10.066;2023-07-30T13:20:57;24.40;99.90
8896;DHT22;4484;48.928;10.066;2023-07-30T13:23:25;24.20;99.90
8896;DHT22;4484;48.928;10.066;2023-07-30T13:25:52;24.00;99.90
8896;DHT22;4484;48.928;10.066;2023-07-30T13:28:19;23.80;99.90
8896;DHT22;4484;48.928;10.066;2023-07-30T13:30:46;23.70;99.90
8896;DHT22;4484;48.928;10.066;2023-07-30T13:33:13;23.70;99.90
8896;DHT22;4484;48.928;10.066;2023-07-30T13:35:40;23.50;99.90
8896;DHT22;4484;48.928;10.066;2023-07-30T13:38:06;23.30;99.90
8896;DHT22;4484;48.928;10.066;2023-07-30T13:40:33;23.00;99.90
8896;DHT22;4484;48.928;10.066;2023-07-30T13:43:00;22.70;99.90
8896;DHT22;4484;48.928;10.066;2023-07-30T13:45:27;22.50;99.90
8896;DHT22;4484;48.928;10.066;2023-07-30T13:47:54;22.60;99.90
8896;DHT22;4484;48.928;10.066;2023-07-30T13:50:21;23.00;99.90
8896;DHT22;4484;48.928;10.066;2023-07-30T13:52:48;23.30;99.90
8896;DHT22;4484;48.928;10.066;2023-07-30T13:55:15;23.50;99.90
8896;DHT22;4484;48.928;10.066;2023-07-30T13:57:43;23.70;99.90
8896;DHT22;4484;48.928;10.066;2023-07-30T14:00:10;23.80;99.90
8896;DHT22;4484;48.928;10.066;2023-07-30T14:02:37;24.10;99.90
8896;DHT22;4484;48.928;10.066;2023-07-30T14:05:04;24.20;99.90
8896;DHT22;4484;48.928;10.066;2023-07-30T14:07:31;24.00;99.90
8896;DHT22;4484;48.928;10.066;2023-07-30T14:09:58;23.90;99.90
8896;DHT22;4484;48.928;10.066;2023-07-30T14:12:25;23.90;99.90
8896;DHT22;4484;48.928;10.066;2023-07-30T14:14:51;23.80;99.90
8896;DHT22;4484;48.928;10.066;2023-07-30T14:17:18;23.90;99.90
8896;DHT22;4484;48.928;10.066;2023-07-30T14:19:45;23.90;99.90
8896;DHT22;4484;48.928;10.066;2023-07-30T14:22:12;23.80;99.90
8896;DHT22;4484;48.928;10.066;2023-07-30T14:24:39;24.00;99.90
8896;DHT22;4484;48.928;10.066;2023-07-30T14:27:06;24.20;99.90
8896;DHT22;4484;48.928;10.066;2023-07-30T14:29:35;24.30;99.90
8896;DHT22;4484;48.928;10.066;2023-07-30T14:32:02;24.40;99.90
8896;DHT22;4484;48.928;10.066;2023-07-30T14:34:29;24.40;99.90
8896;DHT22;4484;48.928;10.066;2023-07-30T14:36:56;24.50;99.90
8896;DHT22;4484;48.928;10.066;2023-07-30T14:39:23;24.30;99.90
8896;DHT22;4484;48.928;10.066;2023-07-30T14:41:49;24.20;99.90
8896;DHT22;4484;48.928;10.066;2023-07-30T14:44:16;24.10;99.90
8896;DHT22;4484;48.928;10.066;2023-07-30T14:46:44;24.00;99.90
8896;DHT22;4484;48.928;10.066;2023-07-30T14:49:11;23.90;99.90
8896;DHT22;4484;48.928;10.066;2023-07-30T14:51:38;23.80;99.90
8896;DHT22;4484;48.928;10.066;2023-07-30T14:54:05;23.80;99.90
8896;DHT22;4484;48.928;10.066;2023-07-30T14:56:32;23.70;99.90
8896;DHT22;4484;48.928;10.066;2023-07-30T14:58:59;23.60;99.90
8896;DHT22;4484;48.928;10.066;2023-07-30T15:01:28;23.50;99.90
8896;DHT22;4484;48.928;10.066;2023-07-30T15:03:56;23.40;99.90
8896;DHT22;4484;48.928;10.066;2023-07-30T15:06:24;23.40;99.90
8896;DHT22;4484;48.928;10.066;2023-07-30T15:08:52;23.40;99.90
8896;DHT22;4484;48.928;10.066;2023-07-30T15:11:19;23.60;99.90
8896;DHT22;4484;48.928;10.066;2023-07-30T15:13:46;23.50;99.90
8896;DHT22;4484;48.928;10.066;2023-07-30T15:16:13;23.60;99.90
8896;DHT22;4484;48.928;10.066;2023-07-30T15:18:41;23.70;99.90
8896;DHT22;4484;48.928;10.066;2023-07-30T15:21:12;23.70;99.90
8896;DHT22;4484;48.928;10.066;2023-07-30T15:23:42;23.50;99.90
8896;DHT22;4484;48.928;10.066;2023-07-30T15:26:09;23.20;99.90
8896;DHT22;4484;48.928;10.066;2023-07-30T15:28:36;23.10;99.90
8896;DHT22;4484;48.928;10.066;2023-07-30T15:31:02;23.10;99.90
8896;DHT22;4484;48.928;10.066;2023-07-30T15:33:29;23.10;99.90
8896;DHT22;4484;48.928;10.066;2023-07-30T15:35:58;23.10;99.90
8896;DHT22;4484;48.928;10.066;2023-07-30T15:38:24;22.70;99.90
8896;DHT22;4484;48.928;10.066;2023-07-30T15:40:51;22.50;99.90
8896;DHT22;4484;48.928;10.066;2023-07-30T15:43:18;22.40;99.90
8896;DHT22;4484;48.928;10.066;2023-07-30T15:45:45;22.30;99.90
8896;DHT22;4484;48.928;10.066;2023-07-30T15:48:12;22.30;99.90